Dahlonega, Iowa
Current Conditions -  °F | °C
As of 6:16 PM on Wednesday 26 Nov 2014 (Local Time) from KOTM Reporting Station
Light Snow Light Snow  
Wind Chill: 21°   Ceiling: 1900
Heat Index: 29°   Visibility: 1.5mi
Dew Point: 26°   Wind: 8mph
Humidity: 89%   Direction: 20°NNE
Pressure: 30.16"   Gusts: NA
Location:  41.0803°N, 92.3054°W
Report Text: KOTM 270016Z AUTO 02007KT 1 1/2SM -SN BR FEW008 OVC019 M02/M03 A3016 RMK AO2 P0000 T10171033
Loading
Personal Weather Stations






























Interactive Weather Map New forecast layout! Learn more

10-Day Weather Forecast

Advertisements
Track Severe Weather on mobile